Strona główna
METAR-TAF:

METAR-TAF

Lotnisko :

Boscombe Down, Anglia

Szerokość geograficzna: 51-10N, Długość geograficzna: 001-45W, wysokość: 124 m

Aktualna obserwacja pogody

Raport powstał 48 minut temu, godzina 12:50 UTC
Wiatr 7 kt od zachodnio-południowy zachód
Temperatura 13°C
Wilgotność 67%
Ciśnienie 999 hPa
Widzialność 10 km lub więcej

METAR: EGDM 151250Z AUTO 24007KT 9999 BKN050/// BKN120/// 13/07 Q0999

czas: 14:38 (13:38 UTC)

Prognoza

Raport powstał 23 godziny i 45 minut temu, godzina 13:53 UTC
Prognoza ważna od 14 godzina 15 UTC do 14 godzina 18 UTC
Wiatr 6 kt od północno-północny wschód
Widzialność 10 km lub więcej
Przerywane chmury na wysokości 2200 ft
Prawdopodobieństwo 40% :
Przejściowo
od 14 godzina 15 UTC do 14 godzina 18 UTC
Rozproszone chmury na wysokości 2500 ft
Prawdopodobieństwo 30% :
Przejściowo
od 14 godzina 15 UTC do 14 godzina 18 UTC
Widzialność: 7000 m
słaby przelotny opad deszczu

TAF: EGDM 141353Z 1415/1418 03006KT 9999 BKN022 PROB40 TEMPO 1415/1418 SCT025 PROB30 TEMPO 1415/1418 7000 -SHRA

Obserwacja i prognoza pogody dla ponad 4000 lotnisk (raport METAR i TAF).

Dostępne stacje oznaczono żółtymi i czerwonymi punktami na mapie.

Najedź kursorem aby zobaczyć nazwę stacji.

Kliknij aby zobaczyć obserwacje i prognozy pogody.

Aby zmienić mapę: kliknij na zielony przycisk z czarnym krzyżykiem, aby powiększyć; na zielony przycisk z myślnikiem, aby pomniejszyć; na zielone strzałki, aby przejść do map sąsiednich.


METAR-TAF: